sensor_id;sensor_type;location;lat;lon;timestamp;P1;durP1;ratioP1;P2;durP2;ratioP2
80253;SDS011;69563;37.974;23.708;2023-10-09T00:00:50;8.68;;;7.38;;
80253;SDS011;69563;37.974;23.708;2023-10-09T00:03:19;9.13;;;7.45;;
80253;SDS011;69563;37.974;23.708;2023-10-09T00:05:48;9.00;;;7.10;;
80253;SDS011;69563;37.974;23.708;2023-10-09T00:08:17;8.80;;;7.32;;
80253;SDS011;69563;37.974;23.708;2023-10-09T00:10:47;8.60;;;7.28;;
80253;SDS011;69563;37.974;23.708;2023-10-09T00:13:24;7.95;;;7.13;;
80253;SDS011;69563;37.974;23.708;2023-10-09T00:15:54;8.45;;;7.35;;
80253;SDS011;69563;37.974;23.708;2023-10-09T00:18:25;9.38;;;7.78;;
80253;SDS011;69563;37.974;23.708;2023-10-09T00:20:57;8.80;;;7.47;;
80253;SDS011;69563;37.974;23.708;2023-10-09T00:23:27;8.85;;;7.10;;
80253;SDS011;69563;37.974;23.708;2023-10-09T00:25:53;9.73;;;7.60;;
80253;SDS011;69563;37.974;23.708;2023-10-09T00:28:37;8.85;;;7.05;;
80253;SDS011;69563;37.974;23.708;2023-10-09T00:31:08;9.05;;;7.38;;
80253;SDS011;69563;37.974;23.708;2023-10-09T00:33:40;9.60;;;7.63;;
80253;SDS011;69563;37.974;23.708;2023-10-09T00:36:07;8.48;;;7.55;;
80253;SDS011;69563;37.974;23.708;2023-10-09T00:38:39;9.40;;;8.18;;
80253;SDS011;69563;37.974;23.708;2023-10-09T00:41:14;9.50;;;7.63;;
80253;SDS011;69563;37.974;23.708;2023-10-09T00:43:45;8.70;;;7.40;;
80253;SDS011;69563;37.974;23.708;2023-10-09T00:46:24;8.80;;;7.32;;
80253;SDS011;69563;37.974;23.708;2023-10-09T00:48:53;9.30;;;7.88;;
80253;SDS011;69563;37.974;23.708;2023-10-09T00:51:22;9.20;;;7.60;;
80253;SDS011;69563;37.974;23.708;2023-10-09T00:53:50;8.40;;;7.28;;
80253;SDS011;69563;37.974;23.708;2023-10-09T00:56:22;9.02;;;7.70;;
80253;SDS011;69563;37.974;23.708;2023-10-09T00:58:57;10.95;;;8.18;;
80253;SDS011;69563;37.974;23.708;2023-10-09T01:01:45;9.02;;;7.57;;
80253;SDS011;69563;37.974;23.708;2023-10-09T01:04:29;8.68;;;7.10;;
80253;SDS011;69563;37.974;23.708;2023-10-09T01:07:02;9.23;;;7.50;;
80253;SDS011;69563;37.974;23.708;2023-10-09T01:09:46;8.45;;;7.10;;
80253;SDS011;69563;37.974;23.708;2023-10-09T01:12:14;9.70;;;7.68;;
80253;SDS011;69563;37.974;23.708;2023-10-09T01:14:43;9.68;;;7.70;;
80253;SDS011;69563;37.974;23.708;2023-10-09T01:17:10;9.38;;;7.45;;
80253;SDS011;69563;37.974;23.708;2023-10-09T01:19:37;9.93;;;8.07;;
80253;SDS011;69563;37.974;23.708;2023-10-09T01:22:03;9.00;;;7.70;;
80253;SDS011;69563;37.974;23.708;2023-10-09T01:24:38;10.48;;;8.48;;
80253;SDS011;69563;37.974;23.708;2023-10-09T01:27:07;8.88;;;7.75;;
80253;SDS011;69563;37.974;23.708;2023-10-09T01:29:40;9.23;;;7.57;;
80253;SDS011;69563;37.974;23.708;2023-10-09T01:32:11;10.05;;;7.80;;
80253;SDS011;69563;37.974;23.708;2023-10-09T01:34:44;9.13;;;7.72;;
80253;SDS011;69563;37.974;23.708;2023-10-09T01:37:14;9.88;;;7.95;;
80253;SDS011;69563;37.974;23.708;2023-10-09T01:39:49;9.13;;;7.75;;
80253;SDS011;69563;37.974;23.708;2023-10-09T01:42:23;8.95;;;8.00;;
80253;SDS011;69563;37.974;23.708;2023-10-09T01:44:55;9.43;;;7.90;;
80253;SDS011;69563;37.974;23.708;2023-10-09T01:47:23;9.18;;;7.47;;
80253;SDS011;69563;37.974;23.708;2023-10-09T01:49:51;9.20;;;8.02;;
80253;SDS011;69563;37.974;23.708;2023-10-09T01:52:18;9.88;;;7.97;;
80253;SDS011;69563;37.974;23.708;2023-10-09T01:54:45;9.43;;;7.72;;
80253;SDS011;69563;37.974;23.708;2023-10-09T01:57:14;8.95;;;7.63;;
80253;SDS011;69563;37.974;23.708;2023-10-09T01:59:43;9.30;;;7.82;;
80253;SDS011;69563;37.974;23.708;2023-10-09T02:02:13;10.77;;;8.07;;
80253;SDS011;69563;37.974;23.708;2023-10-09T02:04:54;9.07;;;7.70;;
80253;SDS011;69563;37.974;23.708;2023-10-09T02:07:50;9.07;;;7.35;;
80253;SDS011;69563;37.974;23.708;2023-10-09T02:10:17;9.38;;;7.57;;
80253;SDS011;69563;37.974;23.708;2023-10-09T02:12:51;8.75;;;7.68;;
80253;SDS011;69563;37.974;23.708;2023-10-09T02:15:40;8.90;;;7.10;;
80253;SDS011;69563;37.974;23.708;2023-10-09T02:20:48;8.90;;;7.60;;
80253;SDS011;69563;37.974;23.708;2023-10-09T02:23:37;9.40;;;7.60;;
80253;SDS011;69563;37.974;23.708;2023-10-09T02:26:10;9.25;;;7.50;;
80253;SDS011;69563;37.974;23.708;2023-10-09T02:29:05;9.02;;;7.82;;
80253;SDS011;69563;37.974;23.708;2023-10-09T02:31:34;8.68;;;7.32;;
80253;SDS011;69563;37.974;23.708;2023-10-09T02:34:08;9.90;;;7.55;;
80253;SDS011;69563;37.974;23.708;2023-10-09T02:36:35;8.32;;;7.18;;
80253;SDS011;69563;37.974;23.708;2023-10-09T02:39:07;9.73;;;7.95;;
80253;SDS011;69563;37.974;23.708;2023-10-09T02:41:59;8.65;;;7.63;;
80253;SDS011;69563;37.974;23.708;2023-10-09T02:44:40;9.43;;;7.95;;
80253;SDS011;69563;37.974;23.708;2023-10-09T02:47:14;8.15;;;7.32;;
80253;SDS011;69563;37.974;23.708;2023-10-09T02:49:45;10.02;;;7.82;;
80253;SDS011;69563;37.974;23.708;2023-10-09T02:52:13;9.15;;;7.75;;
80253;SDS011;69563;37.974;23.708;2023-10-09T02:54:43;9.57;;;7.80;;
80253;SDS011;69563;37.974;23.708;2023-10-09T02:57:12;9.13;;;7.82;;
80253;SDS011;69563;37.974;23.708;2023-10-09T02:59:47;9.90;;;7.65;;
80253;SDS011;69563;37.974;23.708;2023-10-09T03:02:16;9.38;;;7.88;;
80253;SDS011;69563;37.974;23.708;2023-10-09T03:04:43;8.23;;;7.03;;
80253;SDS011;69563;37.974;23.708;2023-10-09T03:07:09;9.45;;;7.72;;
80253;SDS011;69563;37.974;23.708;2023-10-09T03:09:35;9.93;;;7.80;;
80253;SDS011;69563;37.974;23.708;2023-10-09T03:12:03;8.15;;;7.15;;
80253;SDS011;69563;37.974;23.708;2023-10-09T03:14:34;8.93;;;7.57;;
80253;SDS011;69563;37.974;23.708;2023-10-09T03:17:03;8.88;;;7.50;;
80253;SDS011;69563;37.974;23.708;2023-10-09T03:19:30;8.80;;;7.40;;
80253;SDS011;69563;37.974;23.708;2023-10-09T03:22:02;8.93;;;7.25;;
80253;SDS011;69563;37.974;23.708;2023-10-09T03:24:29;8.93;;;7.32;;
80253;SDS011;69563;37.974;23.708;2023-10-09T03:26:57;8.75;;;7.65;;
80253;SDS011;69563;37.974;23.708;2023-10-09T03:29:23;9.90;;;8.10;;
80253;SDS011;69563;37.974;23.708;2023-10-09T03:31:50;8.68;;;7.55;;
80253;SDS011;69563;37.974;23.708;2023-10-09T03:34:16;9.07;;;7.18;;
80253;SDS011;69563;37.974;23.708;2023-10-09T03:36:43;8.35;;;7.30;;
80253;SDS011;69563;37.974;23.708;2023-10-09T03:39:10;8.68;;;7.70;;
80253;SDS011;69563;37.974;23.708;2023-10-09T03:41:55;9.10;;;7.78;;
80253;SDS011;69563;37.974;23.708;2023-10-09T03:44:23;8.75;;;7.70;;
80253;SDS011;69563;37.974;23.708;2023-10-09T03:46:53;8.13;;;6.88;;
80253;SDS011;69563;37.974;23.708;2023-10-09T03:49:19;7.72;;;6.90;;
80253;SDS011;69563;37.974;23.708;2023-10-09T03:51:49;8.20;;;6.72;;
80253;SDS011;69563;37.974;23.708;2023-10-09T03:54:15;8.38;;;7.18;;
80253;SDS011;69563;37.974;23.708;2023-10-09T03:56:45;8.88;;;7.35;;
80253;SDS011;69563;37.974;23.708;2023-10-09T03:59:15;8.30;;;7.30;;
80253;SDS011;69563;37.974;23.708;2023-10-09T04:01:47;9.55;;;7.40;;
80253;SDS011;69563;37.974;23.708;2023-10-09T04:04:18;8.73;;;6.95;;
80253;SDS011;69563;37.974;23.708;2023-10-09T04:06:47;9.20;;;7.63;;
80253;SDS011;69563;37.974;23.708;2023-10-09T04:09:13;8.43;;;7.03;;
80253;SDS011;69563;37.974;23.708;2023-10-09T04:11:48;8.75;;;7.68;;
80253;SDS011;69563;37.974;23.708;2023-10-09T04:14:35;8.10;;;6.93;;
80253;SDS011;69563;37.974;23.708;2023-10-09T04:17:19;8.95;;;7.35;;
80253;SDS011;69563;37.974;23.708;2023-10-09T04:20:08;8.32;;;7.22;;
80253;SDS011;69563;37.974;23.708;2023-10-09T04:22:42;11.73;;;7.60;;
80253;SDS011;69563;37.974;23.708;2023-10-09T04:25:25;10.13;;;7.97;;
80253;SDS011;69563;37.974;23.708;2023-10-09T04:27:55;11.90;;;8.10;;
80253;SDS011;69563;37.974;23.708;2023-10-09T04:30:45;13.13;;;7.63;;
80253;SDS011;69563;37.974;23.708;2023-10-09T04:33:20;13.70;;;8.55;;
80253;SDS011;69563;37.974;23.708;2023-10-09T04:36:03;13.02;;;7.90;;
80253;SDS011;69563;37.974;23.708;2023-10-09T04:38:42;19.65;;;8.18;;
80253;SDS011;69563;37.974;23.708;2023-10-09T04:41:26;21.98;;;8.35;;
80253;SDS011;69563;37.974;23.708;2023-10-09T04:44:18;20.55;;;8.60;;
80253;SDS011;69563;37.974;23.708;2023-10-09T04:46:48;20.90;;;8.60;;
80253;SDS011;69563;37.974;23.708;2023-10-09T04:49:34;15.30;;;8.23;;
80253;SDS011;69563;37.974;23.708;2023-10-09T04:52:13;15.48;;;7.50;;
80253;SDS011;69563;37.974;23.708;2023-10-09T05:00:04;12.20;;;6.20;;
80253;SDS011;69563;37.974;23.708;2023-10-09T05:02:49;7.63;;;5.50;;
80253;SDS011;69563;37.974;23.708;2023-10-09T05:05:29;10.60;;;5.00;;
80253;SDS011;69563;37.974;23.708;2023-10-09T05:08:08;9.63;;;4.57;;
80253;SDS011;69563;37.974;23.708;2023-10-09T05:13:28;9.07;;;4.45;;
80253;SDS011;69563;37.974;23.708;2023-10-09T05:16:06;6.53;;;4.10;;
80253;SDS011;69563;37.974;23.708;2023-10-09T05:18:51;6.28;;;4.05;;
80253;SDS011;69563;37.974;23.708;2023-10-09T05:21:26;7.72;;;3.92;;
80253;SDS011;69563;37.974;23.708;2023-10-09T05:24:00;6.32;;;3.50;;
80253;SDS011;69563;37.974;23.708;2023-10-09T05:26:40;7.80;;;3.25;;
80253;SDS011;69563;37.974;23.708;2023-10-09T05:29:22;7.95;;;3.50;;
80253;SDS011;69563;37.974;23.708;2023-10-09T05:31:57;5.10;;;3.25;;
80253;SDS011;69563;37.974;23.708;2023-10-09T05:34:42;5.07;;;3.08;;
80253;SDS011;69563;37.974;23.708;2023-10-09T05:37:27;5.65;;;3.30;;
80253;SDS011;69563;37.974;23.708;2023-10-09T05:40:08;5.63;;;2.83;;
80253;SDS011;69563;37.974;23.708;2023-10-09T05:42:43;4.78;;;2.80;;
80253;SDS011;69563;37.974;23.708;2023-10-09T05:45:14;5.30;;;3.17;;
80253;SDS011;69563;37.974;23.708;2023-10-09T05:47:47;4.75;;;3.13;;
80253;SDS011;69563;37.974;23.708;2023-10-09T05:50:42;5.50;;;2.88;;
80253;SDS011;69563;37.974;23.708;2023-10-09T05:53:26;4.93;;;3.20;;
80253;SDS011;69563;37.974;23.708;2023-10-09T05:56:13;5.35;;;3.53;;
80253;SDS011;69563;37.974;23.708;2023-10-09T05:58:57;5.15;;;3.25;;
80253;SDS011;69563;37.974;23.708;2023-10-09T06:01:41;5.88;;;4.13;;
80253;SDS011;69563;37.974;23.708;2023-10-09T06:04:16;6.88;;;4.20;;
80253;SDS011;69563;37.974;23.708;2023-10-09T06:06:43;6.30;;;4.53;;
80253;SDS011;69563;37.974;23.708;2023-10-09T06:09:20;5.75;;;4.25;;
80253;SDS011;69563;37.974;23.708;2023-10-09T06:11:47;6.18;;;4.60;;
80253;SDS011;69563;37.974;23.708;2023-10-09T06:14:18;5.85;;;4.22;;
80253;SDS011;69563;37.974;23.708;2023-10-09T06:16:51;6.55;;;4.57;;
80253;SDS011;69563;37.974;23.708;2023-10-09T06:19:36;5.63;;;4.45;;
80253;SDS011;69563;37.974;23.708;2023-10-09T06:22:08;5.82;;;4.55;;
80253;SDS011;69563;37.974;23.708;2023-10-09T06:24:55;6.20;;;4.10;;
80253;SDS011;69563;37.974;23.708;2023-10-09T06:27:22;5.93;;;3.83;;
80253;SDS011;69563;37.974;23.708;2023-10-09T06:29:58;5.95;;;4.18;;
80253;SDS011;69563;37.974;23.708;2023-10-09T06:32:44;6.63;;;4.03;;
80253;SDS011;69563;37.974;23.708;2023-10-09T06:35:21;6.72;;;3.70;;
80253;SDS011;69563;37.974;23.708;2023-10-09T06:37:50;6.57;;;3.53;;
80253;SDS011;69563;37.974;23.708;2023-10-09T06:43:04;6.75;;;3.30;;
80253;SDS011;69563;37.974;23.708;2023-10-09T06:45:45;8.75;;;3.40;;
80253;SDS011;69563;37.974;23.708;2023-10-09T06:48:14;8.10;;;3.33;;
80253;SDS011;69563;37.974;23.708;2023-10-09T06:51:03;7.80;;;3.25;;
80253;SDS011;69563;37.974;23.708;2023-10-09T06:53:51;9.38;;;3.22;;
80253;SDS011;69563;37.974;23.708;2023-10-09T06:56:18;8.95;;;3.25;;
80253;SDS011;69563;37.974;23.708;2023-10-09T06:58:56;8.80;;;3.35;;
80253;SDS011;69563;37.974;23.708;2023-10-09T07:01:26;11.02;;;3.67;;
80253;SDS011;69563;37.974;23.708;2023-10-09T07:03:53;10.63;;;3.65;;
80253;SDS011;69563;37.974;23.708;2023-10-09T07:06:19;9.25;;;3.60;;
80253;SDS011;69563;37.974;23.708;2023-10-09T07:08:55;11.45;;;3.90;;
80253;SDS011;69563;37.974;23.708;2023-10-09T07:11:46;11.32;;;3.90;;
80253;SDS011;69563;37.974;23.708;2023-10-09T07:14:19;8.48;;;3.58;;
80253;SDS011;69563;37.974;23.708;2023-10-09T07:16:58;9.68;;;4.00;;
80253;SDS011;69563;37.974;23.708;2023-10-09T07:19:40;6.90;;;3.63;;
80253;SDS011;69563;37.974;23.708;2023-10-09T07:22:07;8.32;;;4.10;;
80253;SDS011;69563;37.974;23.708;2023-10-09T07:24:46;9.32;;;3.72;;
80253;SDS011;69563;37.974;23.708;2023-10-09T07:27:25;11.18;;;4.18;;
80253;SDS011;69563;37.974;23.708;2023-10-09T07:35:38;10.52;;;4.00;;
80253;SDS011;69563;37.974;23.708;2023-10-09T07:38:18;8.95;;;3.67;;
80253;SDS011;69563;37.974;23.708;2023-10-09T07:40:49;10.52;;;3.90;;
80253;SDS011;69563;37.974;23.708;2023-10-09T07:43:35;8.63;;;3.55;;
80253;SDS011;69563;37.974;23.708;2023-10-09T07:46:05;11.00;;;3.72;;
80253;SDS011;69563;37.974;23.708;2023-10-09T07:48:50;10.57;;;4.05;;
80253;SDS011;69563;37.974;23.708;2023-10-09T07:51:19;6.53;;;4.10;;
80253;SDS011;69563;37.974;23.708;2023-10-09T07:53:51;9.63;;;4.13;;
80253;SDS011;69563;37.974;23.708;2023-10-09T07:56:25;9.60;;;3.78;;
80253;SDS011;69563;37.974;23.708;2023-10-09T07:58:55;10.50;;;4.28;;
80253;SDS011;69563;37.974;23.708;2023-10-09T08:01:25;9.07;;;3.80;;
80253;SDS011;69563;37.974;23.708;2023-10-09T08:04:00;10.02;;;4.40;;
80253;SDS011;69563;37.974;23.708;2023-10-09T08:06:30;10.50;;;3.88;;
80253;SDS011;69563;37.974;23.708;2023-10-09T08:09:07;10.05;;;4.03;;
80253;SDS011;69563;37.974;23.708;2023-10-09T08:11:40;14.75;;;4.28;;
80253;SDS011;69563;37.974;23.708;2023-10-09T08:14:10;10.73;;;4.00;;
80253;SDS011;69563;37.974;23.708;2023-10-09T08:16:55;10.13;;;4.10;;
80253;SDS011;69563;37.974;23.708;2023-10-09T08:19:50;8.68;;;3.95;;
80253;SDS011;69563;37.974;23.708;2023-10-09T08:22:26;9.25;;;4.18;;
80253;SDS011;69563;37.974;23.708;2023-10-09T08:24:55;9.80;;;3.72;;
80253;SDS011;69563;37.974;23.708;2023-10-09T08:27:24;11.98;;;3.88;;
80253;SDS011;69563;37.974;23.708;2023-10-09T08:30:00;10.25;;;3.97;;
80253;SDS011;69563;37.974;23.708;2023-10-09T08:32:57;7.70;;;3.70;;
80253;SDS011;69563;37.974;23.708;2023-10-09T08:35:30;9.88;;;3.88;;
80253;SDS011;69563;37.974;23.708;2023-10-09T08:38:01;10.55;;;4.03;;
80253;SDS011;69563;37.974;23.708;2023-10-09T08:43:16;9.82;;;3.92;;
80253;SDS011;69563;37.974;23.708;2023-10-09T08:48:13;9.15;;;3.80;;
80253;SDS011;69563;37.974;23.708;2023-10-09T08:50:45;11.48;;;4.10;;
80253;SDS011;69563;37.974;23.708;2023-10-09T08:53:14;7.50;;;3.30;;
80253;SDS011;69563;37.974;23.708;2023-10-09T08:55:42;9.63;;;4.18;;
80253;SDS011;69563;37.974;23.708;2023-10-09T08:58:09;7.15;;;3.88;;
80253;SDS011;69563;37.974;23.708;2023-10-09T09:00:48;9.05;;;3.70;;
80253;SDS011;69563;37.974;23.708;2023-10-09T09:03:15;11.13;;;3.80;;
80253;SDS011;69563;37.974;23.708;2023-10-09T09:05:48;10.32;;;3.70;;
80253;SDS011;69563;37.974;23.708;2023-10-09T09:08:28;8.60;;;3.70;;
80253;SDS011;69563;37.974;23.708;2023-10-09T09:10:59;9.80;;;3.80;;
80253;SDS011;69563;37.974;23.708;2023-10-09T09:14:02;14.32;;;3.92;;
80253;SDS011;69563;37.974;23.708;2023-10-09T09:16:33;10.43;;;3.72;;
80253;SDS011;69563;37.974;23.708;2023-10-09T09:19:06;9.52;;;3.67;;
80253;SDS011;69563;37.974;23.708;2023-10-09T09:21:33;5.80;;;3.30;;
80253;SDS011;69563;37.974;23.708;2023-10-09T09:24:06;11.38;;;3.38;;
80253;SDS011;69563;37.974;23.708;2023-10-09T09:26:40;11.50;;;3.40;;
80253;SDS011;69563;37.974;23.708;2023-10-09T09:29:12;7.65;;;3.50;;
80253;SDS011;69563;37.974;23.708;2023-10-09T09:31:42;7.72;;;3.13;;
80253;SDS011;69563;37.974;23.708;2023-10-09T09:34:22;6.38;;;3.33;;
80253;SDS011;69563;37.974;23.708;2023-10-09T09:39:26;11.30;;;3.55;;
80253;SDS011;69563;37.974;23.708;2023-10-09T09:41:56;8.52;;;3.60;;
80253;SDS011;69563;37.974;23.708;2023-10-09T09:44:30;12.00;;;3.28;;
80253;SDS011;69563;37.974;23.708;2023-10-09T09:47:01;6.93;;;3.50;;
80253;SDS011;69563;37.974;23.708;2023-10-09T09:49:31;6.82;;;3.20;;
80253;SDS011;69563;37.974;23.708;2023-10-09T09:52:00;8.27;;;3.88;;
80253;SDS011;69563;37.974;23.708;2023-10-09T09:54:35;10.05;;;3.60;;
80253;SDS011;69563;37.974;23.708;2023-10-09T09:57:05;14.30;;;3.72;;
80253;SDS011;69563;37.974;23.708;2023-10-09T09:59:37;7.60;;;3.50;;
80253;SDS011;69563;37.974;23.708;2023-10-09T10:02:05;9.50;;;3.83;;
80253;SDS011;69563;37.974;23.708;2023-10-09T10:04:36;9.20;;;3.80;;
80253;SDS011;69563;37.974;23.708;2023-10-09T10:07:08;7.68;;;3.95;;
80253;SDS011;69563;37.974;23.708;2023-10-09T10:09:37;10.43;;;3.70;;
80253;SDS011;69563;37.974;23.708;2023-10-09T10:12:04;10.85;;;3.72;;
80253;SDS011;69563;37.974;23.708;2023-10-09T10:17:24;8.73;;;3.90;;
80253;SDS011;69563;37.974;23.708;2023-10-09T10:22:28;6.95;;;3.53;;
80253;SDS011;69563;37.974;23.708;2023-10-09T10:25:02;9.98;;;4.13;;
80253;SDS011;69563;37.974;23.708;2023-10-09T10:27:34;11.23;;;4.25;;
80253;SDS011;69563;37.974;23.708;2023-10-09T10:35:18;6.43;;;3.70;;
80253;SDS011;69563;37.974;23.708;2023-10-09T10:38:01;7.78;;;3.70;;
80253;SDS011;69563;37.974;23.708;2023-10-09T10:43:16;9.35;;;3.80;;
80253;SDS011;69563;37.974;23.708;2023-10-09T10:46:22;8.05;;;3.80;;
80253;SDS011;69563;37.974;23.708;2023-10-09T10:48:48;7.57;;;3.50;;
80253;SDS011;69563;37.974;23.708;2023-10-09T10:51:36;9.43;;;3.65;;
80253;SDS011;69563;37.974;23.708;2023-10-09T10:54:06;8.32;;;3.55;;
80253;SDS011;69563;37.974;23.708;2023-10-09T10:56:51;8.90;;;3.90;;
80253;SDS011;69563;37.974;23.708;2023-10-09T10:59:17;8.13;;;3.63;;
80253;SDS011;69563;37.974;23.708;2023-10-09T11:01:51;7.65;;;3.88;;
80253;SDS011;69563;37.974;23.708;2023-10-09T11:04:18;8.48;;;3.90;;
80253;SDS011;69563;37.974;23.708;2023-10-09T11:06:57;6.88;;;3.53;;
80253;SDS011;69563;37.974;23.708;2023-10-09T11:09:56;10.75;;;3.60;;
80253;SDS011;69563;37.974;23.708;2023-10-09T11:12:32;8.32;;;3.55;;
80253;SDS011;69563;37.974;23.708;2023-10-09T11:15:08;10.55;;;3.78;;
80253;SDS011;69563;37.974;23.708;2023-10-09T11:17:59;7.90;;;3.45;;
80253;SDS011;69563;37.974;23.708;2023-10-09T11:20:31;9.35;;;3.60;;
80253;SDS011;69563;37.974;23.708;2023-10-09T11:22:58;12.48;;;4.00;;
80253;SDS011;69563;37.974;23.708;2023-10-09T11:25:41;6.80;;;3.70;;
80253;SDS011;69563;37.974;23.708;2023-10-09T11:28:18;9.43;;;4.50;;
80253;SDS011;69563;37.974;23.708;2023-10-09T11:31:10;11.32;;;3.80;;
80253;SDS011;69563;37.974;23.708;2023-10-09T11:33:43;9.73;;;4.15;;
80253;SDS011;69563;37.974;23.708;2023-10-09T11:36:19;10.80;;;3.92;;
80253;SDS011;69563;37.974;23.708;2023-10-09T11:38:58;8.13;;;3.75;;
80253;SDS011;69563;37.974;23.708;2023-10-09T11:41:43;7.72;;;3.58;;
80253;SDS011;69563;37.974;23.708;2023-10-09T11:46:59;7.65;;;3.78;;
80253;SDS011;69563;37.974;23.708;2023-10-09T11:49:56;10.85;;;3.80;;
80253;SDS011;69563;37.974;23.708;2023-10-09T11:52:28;7.22;;;3.58;;
80253;SDS011;69563;37.974;23.708;2023-10-09T11:55:01;6.50;;;3.45;;
80253;SDS011;69563;37.974;23.708;2023-10-09T11:57:28;7.07;;;3.75;;
80253;SDS011;69563;37.974;23.708;2023-10-09T11:59:58;6.32;;;3.58;;
80253;SDS011;69563;37.974;23.708;2023-10-09T12:02:25;9.30;;;3.53;;
80253;SDS011;69563;37.974;23.708;2023-10-09T12:04:51;8.00;;;3.75;;
80253;SDS011;69563;37.974;23.708;2023-10-09T12:07:20;10.27;;;3.90;;
80253;SDS011;69563;37.974;23.708;2023-10-09T12:09:47;6.80;;;3.85;;
80253;SDS011;69563;37.974;23.708;2023-10-09T12:12:13;9.93;;;3.83;;
80253;SDS011;69563;37.974;23.708;2023-10-09T12:14:39;7.43;;;3.88;;
80253;SDS011;69563;37.974;23.708;2023-10-09T12:17:05;8.05;;;3.75;;
80253;SDS011;69563;37.974;23.708;2023-10-09T12:19:36;7.53;;;3.40;;
80253;SDS011;69563;37.974;23.708;2023-10-09T12:22:07;7.45;;;3.58;;
80253;SDS011;69563;37.974;23.708;2023-10-09T12:24:41;9.98;;;3.45;;
80253;SDS011;69563;37.974;23.708;2023-10-09T12:27:08;7.10;;;3.75;;
80253;SDS011;69563;37.974;23.708;2023-10-09T12:29:36;10.77;;;3.47;;
80253;SDS011;69563;37.974;23.708;2023-10-09T12:32:02;7.65;;;3.45;;
80253;SDS011;69563;37.974;23.708;2023-10-09T12:34:28;8.15;;;3.72;;
80253;SDS011;69563;37.974;23.708;2023-10-09T12:36:56;7.40;;;3.40;;
80253;SDS011;69563;37.974;23.708;2023-10-09T12:39:28;6.82;;;3.55;;
80253;SDS011;69563;37.974;23.708;2023-10-09T12:41:59;6.45;;;3.58;;
80253;SDS011;69563;37.974;23.708;2023-10-09T12:44:34;6.55;;;3.30;;
80253;SDS011;69563;37.974;23.708;2023-10-09T12:47:09;6.70;;;3.63;;
80253;SDS011;69563;37.974;23.708;2023-10-09T12:49:38;7.68;;;3.50;;
80253;SDS011;69563;37.974;23.708;2023-10-09T12:52:07;6.80;;;3.35;;
80253;SDS011;69563;37.974;23.708;2023-10-09T12:54:42;8.15;;;3.78;;
80253;SDS011;69563;37.974;23.708;2023-10-09T12:57:11;8.05;;;3.20;;
80253;SDS011;69563;37.974;23.708;2023-10-09T12:59:39;5.78;;;3.20;;
80253;SDS011;69563;37.974;23.708;2023-10-09T13:02:11;8.13;;;3.50;;
80253;SDS011;69563;37.974;23.708;2023-10-09T13:04:38;9.27;;;3.35;;
80253;SDS011;69563;37.974;23.708;2023-10-09T13:07:07;6.47;;;3.45;;
80253;SDS011;69563;37.974;23.708;2023-10-09T13:09:33;5.55;;;3.20;;
80253;SDS011;69563;37.974;23.708;2023-10-09T13:12:08;6.50;;;3.40;;
80253;SDS011;69563;37.974;23.708;2023-10-09T13:14:35;6.03;;;3.20;;
80253;SDS011;69563;37.974;23.708;2023-10-09T13:17:01;7.38;;;3.28;;
80253;SDS011;69563;37.974;23.708;2023-10-09T13:19:35;6.22;;;3.35;;
80253;SDS011;69563;37.974;23.708;2023-10-09T13:22:01;7.20;;;3.10;;
80253;SDS011;69563;37.974;23.708;2023-10-09T13:24:29;7.05;;;2.90;;
80253;SDS011;69563;37.974;23.708;2023-10-09T13:26:56;8.00;;;2.95;;
80253;SDS011;69563;37.974;23.708;2023-10-09T13:29:23;5.97;;;3.20;;
80253;SDS011;69563;37.974;23.708;2023-10-09T13:31:49;5.95;;;3.00;;
80253;SDS011;69563;37.974;23.708;2023-10-09T13:34:22;6.68;;;3.00;;
80253;SDS011;69563;37.974;23.708;2023-10-09T13:36:53;9.75;;;3.47;;
80253;SDS011;69563;37.974;23.708;2023-10-09T13:39:20;9.18;;;3.10;;
80253;SDS011;69563;37.974;23.708;2023-10-09T13:41:53;6.53;;;2.90;;
80253;SDS011;69563;37.974;23.708;2023-10-09T13:44:23;6.15;;;2.88;;
80253;SDS011;69563;37.974;23.708;2023-10-09T13:47:05;4.55;;;2.80;;
80253;SDS011;69563;37.974;23.708;2023-10-09T13:49:31;5.93;;;2.97;;
80253;SDS011;69563;37.974;23.708;2023-10-09T13:51:57;6.55;;;2.88;;
80253;SDS011;69563;37.974;23.708;2023-10-09T13:54:25;6.13;;;3.10;;
80253;SDS011;69563;37.974;23.708;2023-10-09T13:56:57;5.57;;;2.97;;
80253;SDS011;69563;37.974;23.708;2023-10-09T13:59:29;6.32;;;3.10;;
80253;SDS011;69563;37.974;23.708;2023-10-09T14:01:56;6.50;;;2.72;;
80253;SDS011;69563;37.974;23.708;2023-10-09T14:04:24;5.97;;;3.13;;
80253;SDS011;69563;37.974;23.708;2023-10-09T14:06:51;6.28;;;3.10;;
80253;SDS011;69563;37.974;23.708;2023-10-09T14:09:24;7.13;;;3.20;;
80253;SDS011;69563;37.974;23.708;2023-10-09T14:12:03;8.93;;;3.30;;
80253;SDS011;69563;37.974;23.708;2023-10-09T14:14:34;5.53;;;3.00;;
80253;SDS011;69563;37.974;23.708;2023-10-09T14:17:06;6.72;;;3.45;;
80253;SDS011;69563;37.974;23.708;2023-10-09T14:22:15;7.13;;;3.47;;
80253;SDS011;69563;37.974;23.708;2023-10-09T14:24:42;6.97;;;3.28;;
80253;SDS011;69563;37.974;23.708;2023-10-09T14:27:14;7.43;;;3.28;;
80253;SDS011;69563;37.974;23.708;2023-10-09T14:29:46;10.98;;;3.22;;
80253;SDS011;69563;37.974;23.708;2023-10-09T14:32:13;6.45;;;3.17;;
80253;SDS011;69563;37.974;23.708;2023-10-09T14:34:40;7.82;;;3.38;;
80253;SDS011;69563;37.974;23.708;2023-10-09T14:37:11;7.63;;;3.30;;
80253;SDS011;69563;37.974;23.708;2023-10-09T14:39:40;6.47;;;3.20;;
80253;SDS011;69563;37.974;23.708;2023-10-09T14:42:07;5.43;;;3.50;;
80253;SDS011;69563;37.974;23.708;2023-10-09T14:44:36;7.13;;;3.20;;
80253;SDS011;69563;37.974;23.708;2023-10-09T14:47:06;8.45;;;3.45;;
80253;SDS011;69563;37.974;23.708;2023-10-09T14:49:32;7.65;;;3.20;;
80253;SDS011;69563;37.974;23.708;2023-10-09T14:52:05;7.85;;;3.50;;
80253;SDS011;69563;37.974;23.708;2023-10-09T14:54:34;7.28;;;3.42;;
80253;SDS011;69563;37.974;23.708;2023-10-09T14:57:03;7.15;;;3.60;;
80253;SDS011;69563;37.974;23.708;2023-10-09T14:59:35;9.73;;;3.67;;
80253;SDS011;69563;37.974;23.708;2023-10-09T15:02:00;9.27;;;3.67;;
80253;SDS011;69563;37.974;23.708;2023-10-09T15:04:26;7.85;;;3.45;;
80253;SDS011;69563;37.974;23.708;2023-10-09T15:06:52;6.60;;;3.70;;
80253;SDS011;69563;37.974;23.708;2023-10-09T15:09:18;5.53;;;3.13;;
80253;SDS011;69563;37.974;23.708;2023-10-09T15:11:47;8.73;;;3.28;;
80253;SDS011;69563;37.974;23.708;2023-10-09T15:14:15;7.75;;;3.40;;
80253;SDS011;69563;37.974;23.708;2023-10-09T15:16:41;9.60;;;3.50;;
80253;SDS011;69563;37.974;23.708;2023-10-09T15:19:11;10.13;;;3.22;;
80253;SDS011;69563;37.974;23.708;2023-10-09T15:21:37;7.70;;;3.97;;
80253;SDS011;69563;37.974;23.708;2023-10-09T15:24:09;8.52;;;4.25;;
80253;SDS011;69563;37.974;23.708;2023-10-09T15:26:50;8.20;;;3.80;;
80253;SDS011;69563;37.974;23.708;2023-10-09T15:29:22;10.77;;;4.30;;
80253;SDS011;69563;37.974;23.708;2023-10-09T15:31:54;13.15;;;4.40;;
80253;SDS011;69563;37.974;23.708;2023-10-09T15:34:20;12.27;;;3.90;;
80253;SDS011;69563;37.974;23.708;2023-10-09T15:36:46;11.75;;;4.57;;
80253;SDS011;69563;37.974;23.708;2023-10-09T15:39:13;9.20;;;4.20;;
80253;SDS011;69563;37.974;23.708;2023-10-09T15:41:39;14.73;;;4.55;;
80253;SDS011;69563;37.974;23.708;2023-10-09T15:44:05;11.45;;;4.60;;
80253;SDS011;69563;37.974;23.708;2023-10-09T15:46:31;12.65;;;4.97;;
80253;SDS011;69563;37.974;23.708;2023-10-09T15:48:59;10.23;;;4.28;;
80253;SDS011;69563;37.974;23.708;2023-10-09T15:51:26;14.15;;;4.80;;